EBCI - Charleroi/Gosselies, Belgium
Distance de la station: NE 18km
Mise à jour: 04/02/2023 13:20
plutôt nuageux
plutôt nuageux
 Wind from ONO
Vent: ONO 6 km/h
Température: 8°C
Point de rosée: 7°C
Humidité: 93%
Baromètre: 1037 hPa
Ciel: plutôt nuageux
Visibilité: 8 km
Détails du ciel: quelques nuages 122 m
plutôt nuageux 183 m
2023/02/04 12:20 EBCI 041220Z 30003KT 250V350 8000 FEW004 BKN006 08/07 Q1037 TEMPO 2500 RADZ BR BKN006
EBFS - Florennes, Belgium
Distance de la station: ESE 31km
Mise à jour: 04/02/2023 13:25
plutôt nuageux
plutôt nuageux
 Wind from varies
Vent: varies 2 km/h
Température: 8°C
Point de rosée: 7°C
Humidité: 93%
Baromètre: 1036 hPa
Ciel: plutôt nuageux
Visibilité: 10 km
Détails du ciel: quelques nuages 91 m
partiellement nuageux 152 m
plutôt nuageux 213 m
2023/02/04 12:25 EBFS 041225Z AUTO VRB01KT 9999 FEW003/// SCT005/// BKN007/// 08/07 Q1036 YLO
EBCV - Chievres, Belgium
Distance de la station: NO 40km
Mise à jour: 04/02/2023 13:43
plutôt nuageux
plutôt nuageux
 Wind from O
Vent: O 6 km/h
Température: 10°C
Point de rosée: 8°C
Humidité: 88%
Baromètre: 1037 hPa
Ciel: plutôt nuageux
Visibilité: 10 km
Détails du ciel: quelques nuages 366 m
plutôt nuageux 1402 m
2023/02/04 12:43 EBCV 041243Z AUTO 28003KT 9999 FEW012/// BKN046/// 10/08 Q1037 BLU
 
EBBE - Beauvechain, Belgium
Distance de la station: NE 57km
Mise à jour: 04/02/2023 13:43
plutôt nuageux
plutôt nuageux
 Wind from varies
Vent: varies 4 km/h
Température: 8°C
Point de rosée: 8°C
Humidité: 100%
Baromètre: 1037 hPa
Ciel: plutôt nuageux
Visibilité: 10 km
Détails du ciel: quelques nuages 91 m
partiellement nuageux 183 m
plutôt nuageux 274 m
2023/02/04 12:43 EBBE 041243Z AUTO VRB02KT 9999 FEW003/// SCT006/// BKN009/// 08/08 Q1037 YLO
EBBR - Brussels National, Belgium
Distance de la station: NNE 63km
Mise à jour: 04/02/2023 13:20
plutôt nuageux
plutôt nuageux
 Wind from varies
Vent: varies 4 km/h
Température: 9°C
Point de rosée: 8°C
Humidité: 94%
Baromètre: 1037 hPa
Ciel: plutôt nuageux
Visibilité: 10 km
Détails du ciel: partiellement nuageux 213 m
plutôt nuageux 610 m
2023/02/04 12:20 EBBR 041220Z VRB02KT 9999 SCT007 BKN020 09/08 Q1037 NOSIG
LFQI - Cambrai/Epinoy, France
Distance de la station: O 82km
Mise à jour: 29/06/2012 12:30
NOT Current

 Wind from SO
Vent: SO 17 km/h
Température: 18°C
Point de rosée: 14°C
Humidité: 78%
Baromètre: 1009 hPa
2012/06/29 10:30 LFQI 291030Z AUTO 22009KT //// // ///////// 18/14 Q1009
 
LFQQ - Lille/Lesquin, France
Distance de la station: ONO 86km
Mise à jour: 04/02/2023 13:30
couvert
couvert
 Wind from ONO
Vent: ONO 11 km/h
Température: 11°C
Point de rosée: 7°C
Humidité: 77%
Baromètre: 1037 hPa
Ciel: couvert
Visibilité: 10 km
Détails du ciel: couvert 1463 m
2023/02/04 12:30 LFQQ 041230Z AUTO 29006KT 9999 OVC048 11/07 Q1037 TEMPO OVC007
EBLG - Bierset/Liege, Belgium
Distance de la station: ENE 89km
Mise à jour: 04/02/2023 13:20
plutôt nuageux
plutôt nuageux
 Wind from varies
Vent: varies 4 km/h
Température: 8°C
Point de rosée: 5°C
Humidité: 82%
Baromètre: 1036 hPa
Ciel: plutôt nuageux
Visibilité: 10 km
Détails du ciel: quelques nuages 305 m
plutôt nuageux 1097 m
2023/02/04 12:20 EBLG 041220Z VRB02KT 9999 FEW010 BKN036 08/05 Q1036 NOSIG
EBDT - Schaffen, Belgium
Distance de la station: NE 93km
Mise à jour: 04/02/2023 13:25
Light drizzle, couvert
Light drizzle, couvert
 Wind from varies
Vent: varies 4 km/h
Température: 8°C
Point de rosée: 7°C
Humidité: 93%
Baromètre: 1037 hPa
Résumé: Light Drizzle
Ciel: couvert
Visibilité: 3 km
Détails du ciel: couvert 91 m
2023/02/04 12:25 EBDT 041225Z AUTO VRB02KT 2600 -DZ OVC003/// 08/07 Q1037 YLO
 
EBAW - Antwerp/Deurne, Belgium
Distance de la station: N 96km
Mise à jour: 04/02/2023 13:20
Light drizzle, plutôt nuageux
Light drizzle, plutôt nuageux
 Wind from NO
Vent: NO 6 km/h
Température: 9°C
Point de rosée: 8°C
Humidité: 94%
Baromètre: 1037 hPa
Résumé: Light Drizzle
Ciel: plutôt nuageux
Visibilité: 8 km
Détails du ciel: plutôt nuageux 183 m
2023/02/04 12:20 EBAW 041220Z 31003KT 270V330 8000 -DZ BKN006 09/08 Q1037 TEMPO 3000 BR BKN005
LFAQ - Bray, France
Distance de la station: OSO 119km
Mise à jour: 04/02/2023 13:30
couvert
couvert
 Wind from NO
Vent: NO 13 km/h
Température: 10°C
Température ressentie: 8°C
Point de rosée: 8°C
Humidité: 88%
Baromètre: 1037 hPa
Ciel: couvert
Visibilité: 10 km
Détails du ciel: couvert 1280 m
2023/02/04 12:30 LFAQ 041230Z AUTO 31007KT 9999 OVC042 10/08 Q1037 TEMPO OVC007
LFSR - Reims/Champagne, France
Distance de la station: S 120km
Mise à jour: 16/04/2012 09:00
NOT Current
partiellement nuageux
partiellement nuageux
 Wind from N
Vent: N 17 km/h
Température: 4°C
Température ressentie: 0°C
Point de rosée: 0°C
Humidité: 75%
Baromètre: 1022 hPa
Ciel: partiellement nuageux
Visibilité: 10 km
2012/04/16 07:00 LFSR 160700Z AUTO 01009KT 340V070 9999 NSC 04/00 Q1022
 
EHWO - Woensdrecht, Netherlands
Distance de la station: N 122km
Mise à jour: 04/02/2023 13:42
brume, plutôt nuageux
brume, plutôt nuageux
 Wind from O
Vent: O 7 km/h
Température: 9°C
Température ressentie: 8°C
Point de rosée: 9°C
Humidité: 100%
Baromètre: 1036 hPa
Résumé: brume
Ciel: plutôt nuageux
Visibilité: 7 km
Détails du ciel: partiellement nuageux 61 m
plutôt nuageux 91 m
plutôt nuageux 152 m
2023/02/04 12:42 EHWO 041242Z AUTO 28004KT 230V300 7000 BR SCT002 BKN003 BKN005 09/09 Q1036 AMB
EHBK - Zuid-Limburg, Netherlands
Distance de la station: ENE 123km
Mise à jour: 04/02/2023 13:25
quelques nuages
quelques nuages
 Wind from O
Vent: O 6 km/h
Température: 8°C
Point de rosée: 6°C
Humidité: 87%
Baromètre: 1036 hPa
Ciel: quelques nuages
Visibilité: 10 km
Détails du ciel: quelques nuages 335 m
2023/02/04 12:25 EHBK 041225Z AUTO 28003KT 210V310 9999 FEW011 08/06 Q1036 NOSIG
EBBL - Kleine-Brogel, Belgium
Distance de la station: NE 124km
Mise à jour: 04/02/2023 13:25
couvert
couvert
 Wind from varies
Vent: varies 0 km/h
Température: 9°C
Point de rosée: 6°C
Humidité: 82%
Baromètre: 1036 hPa
Ciel: couvert
Visibilité: 10 km
Détails du ciel: quelques nuages 396 m
partiellement nuageux 1341 m
couvert 1859 m
2023/02/04 12:25 EBBL 041225Z AUTO //////KT 9999 FEW013/// SCT044/// OVC061/// 09/06 Q1036 BLU
 
EBLB - Elsenborn, Belgium
Distance de la station: E 135km
Mise à jour: 04/02/2023 13:25
plutôt nuageux
plutôt nuageux
 Wind from NNO
Vent: NNO 7 km/h
Température: 5°C
Température ressentie: 3°C
Point de rosée: 1°C
Humidité: 76%
Baromètre: 1035 hPa
Ciel: plutôt nuageux
Visibilité: 10 km
Détails du ciel: plutôt nuageux 1250 m
2023/02/04 12:25 EBLB 041225Z AUTO 34004KT 9999 BKN041/// 05/01 Q1035 BLU
EBOS - Oostende Airport, Belgium
Distance de la station: NO 136km
Mise à jour: 04/02/2023 13:20
plutôt nuageux
plutôt nuageux
 Wind from O
Vent: O 13 km/h
Température: 8°C
Température ressentie: 6°C
Point de rosée: 6°C
Humidité: 87%
Baromètre: 1038 hPa
Ciel: plutôt nuageux
Visibilité: 10 km
Détails du ciel: quelques nuages 610 m
plutôt nuageux 1372 m
2023/02/04 12:20 EBOS 041220Z 28007KT 9999 FEW020 BKN045 08/06 Q1038 NOSIG
EBFN - Koksijde, Belgium
Distance de la station: NO 140km
Mise à jour: 04/02/2023 13:25
couvert
couvert
 Wind from O
Vent: O 13 km/h
Température: 10°C
Température ressentie: 8°C
Point de rosée: 7°C
Humidité: 82%
Baromètre: 1037 hPa
Ciel: couvert
Visibilité: 10 km
Détails du ciel: couvert 1524 m
2023/02/04 12:25 EBFN 041225Z AUTO 28007KT 9999 OVC050/// 10/07 Q1037 BLU
 
ETNG - Geilenkirchen, Germany
Distance de la station: ENE 142km
Mise à jour: 04/02/2023 13:50
partiellement nuageux
partiellement nuageux
 Wind from O
Vent: O 11 km/h
Température: 10°C
Température ressentie: 8°C
Point de rosée: 6°C
Humidité: 76%
Baromètre: 1036 hPa
Ciel: partiellement nuageux
Visibilité: 10 km
Détails du ciel: partiellement nuageux 518 m
partiellement nuageux 1433 m
2023/02/04 12:50 ETNG 041250Z 28006KT 9999 SCT017 SCT047 10/06 Q1036 NOSIG
EHGR - Gilze-Rijen, Netherlands
Distance de la station: NNE 143km
Mise à jour: 04/02/2023 13:29
brume, couvert
brume, couvert
 Wind from varies
Vent: varies 4 km/h
Température: 8°C
Point de rosée: 7°C
Humidité: 93%
Baromètre: 1036 hPa
Résumé: brume
Ciel: couvert
Visibilité: 9 km
Détails du ciel: quelques nuages 518 m
partiellement nuageux 823 m
couvert 914 m
2023/02/04 12:29 EHGR 041229Z AUTO VRB02KT 9000 BR FEW017 SCT027 OVC030 08/07 Q1036 BLU
EHEH - Eindhoven, Netherlands
Distance de la station: NNE 147km
Mise à jour: 04/02/2023 13:26
couvert
couvert
 Wind from ONO
Vent: ONO 6 km/h
Température: 9°C
Point de rosée: 6°C
Humidité: 82%
Baromètre: 1037 hPa
Ciel: couvert
Visibilité: 10 km
Détails du ciel: quelques nuages 396 m
couvert 1250 m
2023/02/04 12:26 EHEH 041226Z AUTO 29003KT 210V340 9999 FEW013 OVC041 09/06 Q1037 BLU NOSIG
 
ELLX - Luxembourg, Luxembourg
Distance de la station: ESE 162km
Mise à jour: 04/02/2023 13:20
plutôt nuageux
plutôt nuageux
 Wind from NE
Vent: NE 11 km/h
Température: 7°C
Température ressentie: 5°C
Point de rosée: 3°C
Humidité: 76%
Baromètre: 1035 hPa
Ciel: plutôt nuageux
Visibilité: 10 km
Détails du ciel: quelques nuages 610 m
plutôt nuageux 1524 m
2023/02/04 12:20 ELLX 041220Z 05006KT 020V110 9999 FEW020 BKN050 07/03 Q1035 NOSIG
EHVK - Volkel, Netherlands
Distance de la station: NE 174km
Mise à jour: 04/02/2023 13:26
couvert
couvert
 Wind from OSO
Vent: OSO 7 km/h
Température: 9°C
Température ressentie: 8°C
Point de rosée: 5°C
Humidité: 76%
Baromètre: 1036 hPa
Ciel: couvert
Visibilité: 10 km
Détails du ciel: quelques nuages 549 m
plutôt nuageux 1463 m
couvert 1615 m
2023/02/04 12:26 EHVK 041226Z AUTO 24004KT 200V280 9999 FEW018 BKN048 OVC053 09/05 Q1036 BLU
LFOK - Chalons/Vatry, France
Distance de la station: S 174km
Mise à jour: 04/02/2023 13:30
brume, couvert
brume, couvert
 Wind from N
Vent: N 17 km/h
Température: 9°C
Température ressentie: 7°C
Point de rosée: 8°C
Humidité: 94%
Baromètre: 1037 hPa
Résumé: brume
Ciel: couvert
Visibilité: 5 km
Détails du ciel: couvert 91 m
2023/02/04 12:30 LFOK 041230Z AUTO 35009KT 5000 BR OVC003 09/08 Q1037 TEMPO 2000 DZ BR
Script from Saratoga-Weather.org